Oceanview, Delaware
Current Conditions -  °F | °C
As of 9:53 PM on Tuesday 21 Oct 2014 (Local Time) from KOXB Reporting Station
Broken Clouds Broken Clouds  
Wind Chill: 55°   Ceiling: 9500
Heat Index: 55°   Visibility: 10mi
Dew Point: 54°   Wind: 0mph
Humidity: 96%   Direction: NA
Pressure: 29.84"   Gusts: NA
Location:  38.5606°N, 75.0865°W
Report Text: KOXB 220153Z AUTO 00000KT 10SM BKN095 BKN120 13/12 A2984 RMK AO2 SLP105 T01280122 TSNO
Loading
Personal Weather Stations






























Interactive Weather Map
Tropical Storm Tracking
New forecast layout! Learn more

10-Day Weather Forecast

Advertisements
Track Severe Weather on mobile